Time;durP1;ratioP1;P1;durP2;ratioP2;P2;SDS_P1;SDS_P2;PMS_P1;PMS_P2;Temp;Humidity;BMP_temperature;BMP_pressure;BME280_temperature;BME280_humidity;BME280_pressure;Samples;Min_cycle;Max_cycle;Signal;HPM_P1;HPM_P2
2021/12/07 00:00:47;;;;;;;2.65;2.25;;;;;;;5.61;76.77;93708.41;4903667;29;20036;-80
2021/12/07 00:03:12;;;;;;;3.33;2.85;;;;;;;5.68;77.30;93713.44;4903542;29;20035;-81
2021/12/07 00:05:37;;;;;;;;;;;;;;;5.79;76.20;93709.25;4887782;29;20043;-81
2021/12/07 00:08:03;;;;;;;5.65;3.88;;;;;;;5.86;76.31;93709.94;4876676;29;19958;-80
2021/12/07 00:10:29;;;;;;;6.13;4.07;;;;;;;5.96;76.37;93713.50;4921159;29;20039;-81
2021/12/07 00:12:54;;;;;;;4.97;4.35;;;;;;;6.11;74.53;93722.53;4922477;29;20039;-79
2021/12/07 00:15:23;;;;;;;7.10;4.45;;;;;;;6.19;75.12;93719.59;4910914;29;20028;-79
2021/12/07 00:17:48;;;;;;;5.85;4.10;;;;;;;6.25;74.23;93716.88;4926873;29;20028;-79
2021/12/07 00:20:16;;;;;;;6.90;3.30;;;;;;;6.33;73.36;93713.91;4920638;29;20040;-78
2021/12/07 00:22:42;;;;;;;;;;;;;;;6.40;72.67;93711.19;4903638;29;20499;-78
2021/12/07 00:25:08;;;;;;;4.60;4.20;;;;;;;6.47;73.22;93713.63;4894349;29;19919;-79
2021/12/07 00:27:33;;;;;;;5.03;4.10;;;;;;;6.51;72.48;93707.78;4887222;29;20040;-78
2021/12/07 00:30:06;;;;;;;4.10;3.77;;;;;;;6.71;71.63;93703.94;4888825;29;20414;-79
2021/12/07 00:32:34;;;;;;;3.42;2.63;;;;;;;6.94;70.73;93701.19;4953394;23;20385;-78
2021/12/07 00:37:37;;;;;;;;;;;;;;;6.96;70.54;93716.44;4908846;29;19930;-80
2021/12/07 00:40:03;;;;;;;;;;;;;;;6.87;71.60;93716.06;4892329;29;20764;-80
2021/12/07 00:42:28;;;;;;;;;;;;;;;6.83;70.99;93720.13;4892257;29;19919;-80
2021/12/07 00:44:54;;;;;;;;;;;;;;;6.79;71.24;93712.06;4893015;29;19926;-79
2021/12/07 00:47:19;;;;;;;;;;;;;;;6.78;71.85;93722.66;4891857;29;19916;-81
2021/12/07 00:49:44;;;;;;;;;;;;;;;6.80;71.67;93726.56;4891281;29;19930;-81
2021/12/07 00:52:10;;;;;;;;;;;;;;;6.81;71.80;93717.78;4892958;29;19922;-81
2021/12/07 00:54:35;;;;;;;;;;;;;;;6.81;71.63;93722.16;4891277;29;20030;-81
2021/12/07 00:57:02;;;;;;;;;;;;;;;6.76;71.47;93724.69;4892912;29;20280;-81
2021/12/07 00:59:28;;;;;;;4.85;2.30;;;;;;;6.75;71.81;93726.47;4893773;29;19923;-80
2021/12/07 01:01:54;;;;;;;3.40;2.05;;;;;;;6.75;71.12;93723.91;4897243;29;20050;-79
2021/12/07 01:04:19;;;;;;;;;;;;;;;6.75;71.05;93717.94;4917812;23;20052;-80
2021/12/07 01:09:18;;;;;;;2.10;2.00;;;;;;;6.88;70.69;93723.59;4916879;23;20505;-81
2021/12/07 01:25:31;;;;;;;5.50;3.20;;;;;;;7.83;67.52;93719.97;4878961;29;20067;-81
2021/12/07 01:28:01;;;;;;;2.95;2.42;;;;;;;7.74;67.62;93711.06;4897494;29;20907;-81
2021/12/07 01:30:48;;;;;;;3.53;2.05;;;;;;;7.61;68.08;93700.28;4901878;23;20045;-80
2021/12/07 01:43:51;;;;;;;2.88;1.92;;;;;;;6.91;70.95;93701.66;4917824;29;20051;-82
2021/12/07 02:02:12;;;;;;;2.08;1.70;;;;;;;6.40;71.78;93675.03;4925173;23;20051;-79
2021/12/07 02:04:37;;;;;;;2.10;1.63;;;;;;;6.26;72.31;93668.59;4895849;29;20477;-78
2021/12/07 02:07:04;;;;;;;8.30;1.45;;;;;;;6.16;72.66;93669.19;4890258;29;20041;-81
2021/12/07 02:09:30;;;;;;;3.55;1.55;;;;;;;6.05;71.89;93656.38;4889443;29;20934;-80
2021/12/07 02:12:08;;;;;;;2.28;1.40;;;;;;;5.89;73.02;93648.34;4874771;29;20065;-80
2021/12/07 02:14:33;;;;;;;4.10;1.48;;;;;;;5.73;74.10;93644.69;4890261;29;20041;-81
2021/12/07 02:17:02;;;;;;;1.38;1.27;;;;;;;5.63;73.91;93659.19;4889612;29;20108;-81
2021/12/07 02:19:28;;;;;;;1.48;1.38;;;;;;;5.51;74.14;93661.00;4891640;29;20043;-81
2021/12/07 02:21:54;;;;;;;2.97;1.70;;;;;;;5.47;75.32;93655.53;4889249;29;20037;-81
2021/12/07 02:24:19;;;;;;;2.90;1.85;;;;;;;5.42;74.45;93665.75;4889894;29;20402;-81
2021/12/07 02:26:47;;;;;;;1.60;1.50;;;;;;;5.43;74.77;93665.50;4889678;29;20038;-81
2021/12/07 02:29:13;;;;;;;1.95;1.80;;;;;;;5.35;74.33;93663.28;4871471;29;20100;-81
2021/12/07 02:31:38;;;;;;;2.45;2.30;;;;;;;5.29;75.17;93653.09;4888630;29;20502;-81
2021/12/07 02:34:04;;;;;;;1.73;1.63;;;;;;;5.30;75.76;93652.88;4872748;29;20047;-81
2021/12/07 02:36:29;;;;;;;2.75;1.90;;;;;;;5.25;74.96;93642.47;4875180;29;20037;-81
2021/12/07 02:38:55;;;;;;;1.83;1.73;;;;;;;5.19;75.11;93642.56;4889626;29;20048;-81
2021/12/07 02:41:21;;;;;;;3.40;1.50;;;;;;;5.31;75.04;93644.13;4896393;29;20481;-82
2021/12/07 02:43:46;;;;;;;1.75;1.65;;;;;;;5.36;74.07;93626.19;4874733;29;20068;-81
2021/12/07 02:46:12;;;;;;;1.70;1.60;;;;;;;5.27;74.74;93637.09;4888521;29;20065;-81
2021/12/07 02:48:37;;;;;;;1.70;1.60;;;;;;;5.15;74.61;93642.25;4888239;29;20115;-81
2021/12/07 02:51:03;;;;;;;2.53;2.33;;;;;;;5.05;75.43;93640.28;4863152;29;20041;-81
2021/12/07 02:53:28;;;;;;;;;;;;;;;5.01;74.84;93656.38;4890009;29;20048;-81
2021/12/07 02:55:55;;;;;;;2.40;2.20;;;;;;;4.89;75.43;93650.47;4887268;29;19951;-80
2021/12/07 02:58:21;;;;;;;2.45;1.83;;;;;;;4.80;75.88;93655.16;4888153;29;20032;-82
2021/12/07 03:00:55;;;;;;;3.00;2.33;;;;;;;4.81;76.20;93654.16;4889681;29;20028;-81
2021/12/07 03:03:20;;;;;;;1.90;1.80;;;;;;;4.85;75.20;93657.84;4866605;29;20446;-81
2021/12/07 03:05:57;;;;;;;3.53;1.95;;;;;;;4.86;75.38;93648.31;4878588;29;20047;-82
2021/12/07 03:27:20;;;;;;;2.30;2.20;;;;;;;4.50;74.41;93634.66;4905577;29;20629;-81
2021/12/07 03:29:45;;;;;;;1.88;1.77;;;;;;;4.44;75.02;93641.50;4866723;29;20044;-80
2021/12/07 03:32:12;;;;;;;2.08;1.88;;;;;;;4.38;75.20;93641.59;4912324;29;20028;-79
2021/12/07 03:34:37;;;;;;;3.95;2.53;;;;;;;4.39;75.21;93635.44;4904867;29;20047;-81
2021/12/07 03:37:03;;;;;;;2.97;2.78;;;;;;;4.37;75.21;93645.16;4902106;29;20028;-81
2021/12/07 03:39:28;;;;;;;5.43;4.88;;;;;;;4.43;74.62;93636.56;4902722;29;20040;-81
2021/12/07 03:41:54;;;;;;;4.28;3.67;;;;;;;4.45;74.15;93642.28;4901160;29;20047;-81
2021/12/07 03:44:19;;;;;;;4.43;3.47;;;;;;;4.46;73.96;93628.41;4869104;29;20099;-81
2021/12/07 03:46:45;;;;;;;4.13;2.97;;;;;;;4.42;74.01;93638.38;4900937;29;20033;-81
2021/12/07 03:49:11;;;;;;;5.05;2.97;;;;;;;4.39;74.31;93638.00;4901844;29;20028;-81
2021/12/07 03:51:36;;;;;;;1.88;1.77;;;;;;;4.28;74.50;93636.22;4901715;29;20040;-80
2021/12/07 03:54:02;;;;;;;2.50;2.30;;;;;;;4.27;74.56;93639.78;4882442;29;20024;-80
2021/12/07 03:56:28;;;;;;;2.08;1.98;;;;;;;4.22;74.97;93633.50;4901552;29;20075;-81
2021/12/07 03:58:53;;;;;;;2.45;1.90;;;;;;;4.25;74.37;93636.66;4946059;23;20071;-81
2021/12/07 04:01:23;;;;;;;2.20;2.05;;;;;;;4.19;74.06;93638.31;4940367;29;20109;-81
2021/12/07 04:03:48;;;;;;;4.05;2.40;;;;;;;4.21;73.67;93639.66;4920376;29;20476;-81
2021/12/07 04:06:14;;;;;;;2.30;2.20;;;;;;;4.25;73.83;93641.81;4929953;29;20095;-81
2021/12/07 04:08:41;;;;;;;2.22;2.13;;;;;;;4.26;74.21;93640.81;4930064;29;20051;-81
2021/12/07 04:11:07;;;;;;;2.83;2.35;;;;;;;4.26;74.38;93643.38;4929335;29;20043;-82
2021/12/07 04:13:32;;;;;;;2.75;2.55;;;;;;;4.28;73.69;93643.94;4936054;23;20070;-81
2021/12/07 04:15:59;;;;;;;;;;;;;;;4.35;73.37;93636.88;4901312;29;20048;-81
2021/12/07 04:18:25;;;;;;;4.72;3.90;;;;;;;4.22;73.83;93646.38;4895406;29;19948;-81
2021/12/07 04:20:51;;;;;;;3.92;3.63;;;;;;;4.27;73.66;93648.28;4868098;29;20072;-81
2021/12/07 04:23:16;;;;;;;4.50;3.88;;;;;;;4.29;73.67;93648.06;4874782;29;20494;-81
2021/12/07 04:25:41;;;;;;;;;;;;;;;4.32;72.40;93650.19;4850137;29;20037;-80
2021/12/07 04:28:07;;;;;;;2.40;2.20;;;;;;;4.20;72.99;93645.81;4907126;23;19974;-79
2021/12/07 04:30:42;;;;;;;2.33;2.13;;;;;;;4.12;72.60;93643.56;4909820;29;20065;-79
2021/12/07 04:33:08;;;;;;;4.03;3.40;;;;;;;4.07;73.67;93640.09;4907948;29;20043;-80
2021/12/07 04:35:44;;;;;;;6.10;3.70;;;;;;;4.07;73.89;93646.03;4912064;29;20060;-80
2021/12/07 04:38:10;;;;;;;4.60;4.20;;;;;;;4.09;73.34;93644.00;4911173;29;20473;-80
2021/12/07 04:40:36;;;;;;;4.25;3.90;;;;;;;4.04;73.36;93641.28;4893398;29;20055;-80
2021/12/07 04:43:02;;;;;;;4.32;4.03;;;;;;;3.99;73.59;93637.81;4906551;29;20123;-80
2021/12/07 04:45:38;;;;;;;6.68;3.65;;;;;;;3.97;72.35;93635.47;4909127;29;20143;-79
2021/12/07 04:58:48;;;;;;;3.50;3.20;;;;;;;3.97;72.28;93635.47;4909270;29;20477;-80
2021/12/07 05:01:14;;;;;;;5.30;3.50;;;;;;;3.95;71.66;93642.63;4909793;29;20416;-74
2021/12/07 05:03:41;;;;;;;5.90;5.23;;;;;;;4.02;72.10;93642.53;4907769;29;20898;-79
2021/12/07 05:06:09;;;;;;;4.05;3.65;;;;;;;4.20;71.61;93643.22;4892289;29;20416;-80
2021/12/07 05:08:43;;;;;;;8.60;4.85;;;;;;;4.11;72.11;93642.00;4910395;29;20481;-79
2021/12/07 05:14:01;;;;;;;4.95;4.30;;;;;;;3.83;72.19;93644.38;4901525;29;20032;-79
2021/12/07 05:16:45;;;;;;;5.53;3.90;;;;;;;3.72;73.47;93652.81;4896427;29;20055;-79
2021/12/07 05:24:25;;;;;;;5.50;5.10;;;;;;;3.46;73.67;93644.44;4881533;29;20500;-79
2021/12/07 05:38:17;;;;;;;5.85;4.43;;;;;;;3.15;75.13;93652.31;4880120;29;20047;-80
2021/12/07 05:40:29;;;;;;;16.13;9.43;;;;;;;3.13;74.95;93651.75;4897569;29;20048;-82
2021/12/07 05:42:55;;;;;;;5.45;3.88;;;;;;;3.06;75.26;93648.44;4873820;29;20035;-81
2021/12/07 05:45:23;;;;;;;;;;;;;;;3.10;76.41;93644.47;4894811;29;20195;-81
2021/12/07 05:47:48;;;;;;;;;;;;;;;3.01;74.97;93642.19;4911445;29;19923;-81
2021/12/07 05:50:16;;;;;;;13.38;9.25;;;;;;;2.96;75.52;93636.91;4911835;29;20059;-81
2021/12/07 05:52:42;;;;;;;8.25;7.28;;;;;;;3.00;77.06;93635.47;4879605;29;20074;-81
2021/12/07 05:55:08;;;;;;;12.50;9.90;;;;;;;3.20;74.86;93631.91;4893944;29;20411;-84
2021/12/07 05:57:33;;;;;;;;;;;;;;;3.26;74.31;93631.06;4895754;29;20093;-80
2021/12/07 05:59:59;;;;;;;;;;;;;;;3.21;74.98;93641.19;4920355;29;19919;-78
2021/12/07 06:02:24;;;;;;;16.60;11.30;;;;;;;3.15;74.58;93647.19;4908109;29;19919;-78
2021/12/07 06:04:49;;;;;;;15.10;8.73;;;;;;;3.09;74.67;93637.75;4909651;29;20026;-78
2021/12/07 06:07:15;;;;;;;;;;;;;;;3.07;74.98;93637.19;4877834;29;20406;-78
2021/12/07 06:09:40;;;;;;;6.88;5.88;;;;;;;2.97;75.48;93643.63;4907179;29;19919;-77
2021/12/07 06:12:08;;;;;;;20.63;14.77;;;;;;;2.99;76.69;93649.31;4891415;29;20028;-78
2021/12/07 06:14:41;;;;;;;;;;;;;;;3.06;75.46;93648.44;4883404;29;20056;-78
2021/12/07 06:17:06;;;;;;;;;;;;;;;3.09;74.76;93650.59;4906857;29;19919;-78
2021/12/07 06:19:31;;;;;;;;;;;;;;;2.98;75.44;93642.63;4907732;29;19930;-78
2021/12/07 06:21:56;;;;;;;;;;;;;;;2.93;74.39;93646.81;4890778;29;19923;-78
2021/12/07 06:24:22;;;;;;;4.78;4.38;;;;;;;2.89;74.55;93650.78;4907724;29;19926;-78
2021/12/07 06:26:47;;;;;;;7.68;6.03;;;;;;;2.86;75.46;93636.59;4906258;29;20119;-78
2021/12/07 06:29:13;;;;;;;7.95;7.10;;;;;;;2.89;75.63;93649.00;4863733;29;20047;-78
2021/12/07 06:31:38;;;;;;;5.50;4.55;;;;;;;2.89;74.80;93645.66;4916842;29;20942;-78
2021/12/07 06:34:03;;;;;;;;;;;;;;;2.93;74.67;93645.03;4899891;29;20040;-78
2021/12/07 06:36:29;;;;;;;10.75;7.30;;;;;;;2.81;75.79;93644.16;4918991;29;19930;-78
2021/12/07 06:38:54;;;;;;;9.95;6.90;;;;;;;2.77;75.84;93645.59;4879077;29;20032;-78
2021/12/07 06:41:20;;;;;;;8.75;6.57;;;;;;;2.79;76.82;93645.38;4910425;29;20051;-78
2021/12/07 06:43:45;;;;;;;8.70;6.35;;;;;;;2.79;75.22;93628.19;4920121;23;20055;-78
2021/12/07 06:46:11;;;;;;;9.50;6.03;;;;;;;2.78;75.28;93642.03;4938321;29;20031;-78
2021/12/07 06:48:36;;;;;;;14.50;9.75;;;;;;;2.69;76.34;93643.28;4933266;29;20043;-78
2021/12/07 06:51:02;;;;;;;8.85;6.70;;;;;;;2.72;76.37;93638.50;4928555;29;20028;-78
2021/12/07 06:53:35;;;;;;;14.10;8.98;;;;;;;2.72;75.52;93640.28;4896580;29;20036;-79
2021/12/07 06:56:00;;;;;;;;;;;;;;;2.72;75.27;93648.00;4899630;29;20036;-78
2021/12/07 06:58:26;;;;;;;5.30;4.82;;;;;;;2.62;77.05;93643.38;4929292;29;19922;-78
2021/12/07 07:00:51;;;;;;;7.72;6.63;;;;;;;2.61;75.89;93646.16;4896306;29;20443;-78
2021/12/07 07:03:16;;;;;;;13.98;5.22;;;;;;;2.57;75.97;93648.31;4897536;29;20039;-78
2021/12/07 07:05:42;;;;;;;7.45;6.15;;;;;;;2.53;76.25;93643.84;4928643;29;20342;-78
2021/12/07 07:08:27;;;;;;;12.48;6.10;;;;;;;2.52;76.47;93643.03;4903389;29;20036;-78
2021/12/07 07:10:52;;;;;;;9.80;7.50;;;;;;;2.41;77.54;93649.63;4901677;29;20048;-78
2021/12/07 07:13:18;;;;;;;7.10;5.50;;;;;;;2.42;77.40;93646.06;4943733;29;20044;-78
2021/12/07 07:15:43;;;;;;;11.45;6.57;;;;;;;2.47;78.04;93649.81;4916110;29;20032;-78
2021/12/07 07:18:09;;;;;;;5.25;4.75;;;;;;;2.40;77.70;93645.50;4932028;29;20031;-78
2021/12/07 07:20:34;;;;;;;9.85;6.90;;;;;;;2.44;81.19;93650.22;4935035;29;20039;-78
2021/12/07 07:23:00;;;;;;;12.70;8.23;;;;;;;2.53;77.49;93641.25;4910125;29;20047;-78
2021/12/07 07:25:25;;;;;;;11.45;7.38;;;;;;;2.52;78.52;93644.81;4910308;29;20039;-78
2021/12/07 07:27:50;;;;;;;7.65;6.38;;;;;;;2.54;76.92;93645.41;4909861;29;20484;-78
2021/12/07 07:30:17;;;;;;;10.23;6.53;;;;;;;2.49;78.04;93640.13;4927839;29;20400;-78
2021/12/07 07:32:43;;;;;;;12.95;7.45;;;;;;;2.54;77.82;93653.09;4909708;29;20067;-78
2021/12/07 07:35:08;;;;;;;6.28;5.30;;;;;;;2.56;77.13;93651.09;4911166;29;20042;-78
2021/12/07 07:37:34;;;;;;;;;;;;;;;2.57;77.62;93642.41;4895618;29;20035;-78
2021/12/07 07:39:59;;;;;;;7.93;6.78;;;;;;;2.51;77.52;93656.88;4910852;29;19938;-78
2021/12/07 07:42:25;;;;;;;6.22;5.60;;;;;;;2.52;77.93;93648.19;4877925;29;20404;-79
2021/12/07 07:44:50;;;;;;;;;;;;;;;2.49;77.86;93656.31;4893414;29;20606;-78
2021/12/07 07:47:16;;;;;;;10.15;6.68;;;;;;;2.38;77.52;93660.31;4923651;29;19922;-78
2021/12/07 07:49:41;;;;;;;12.23;7.95;;;;;;;2.38;77.63;93657.75;4907643;29;20410;-78
2021/12/07 07:52:07;;;;;;;7.30;5.70;;;;;;;2.42;77.72;93650.41;4907862;29;20040;-79
2021/12/07 07:54:32;;;;;;;8.77;5.43;;;;;;;2.45;78.38;93656.94;4894690;29;20032;-78
2021/12/07 07:57:01;;;;;;;9.93;5.90;;;;;;;2.48;78.26;93659.09;4896475;29;20036;-77
2021/12/07 07:59:26;;;;;;;8.63;6.32;;;;;;;2.54;76.88;93655.66;4912833;29;20032;-77
2021/12/07 08:01:52;;;;;;;11.23;7.90;;;;;;;2.48;78.12;93653.94;4930081;29;20038;-77
2021/12/07 08:04:17;;;;;;;17.80;12.30;;;;;;;2.66;76.42;93643.72;4898792;23;20443;-79
2021/12/07 08:06:43;;;;;;;14.88;10.57;;;;;;;2.78;76.89;93649.72;4884884;29;20041;-79
2021/12/07 08:09:08;;;;;;;15.15;10.18;;;;;;;2.78;75.58;93647.16;4874675;29;20042;-79
2021/12/07 08:11:34;;;;;;;;;;;;;;;2.70;77.11;93655.91;4865326;29;20033;-79
2021/12/07 08:13:59;;;;;;;18.95;13.95;;;;;;;2.65;76.65;93654.97;4879140;29;20316;-78
2021/12/07 08:16:24;;;;;;;18.67;12.88;;;;;;;2.67;77.80;93658.91;4872417;29;20114;-79
2021/12/07 08:18:52;;;;;;;25.13;14.93;;;;;;;2.71;77.02;93666.97;4871692;29;20386;-78
2021/12/07 08:21:17;;;;;;;28.05;15.95;;;;;;;2.77;76.51;93657.66;4869725;29;20037;-77
2021/12/07 08:23:43;;;;;;;29.70;15.32;;;;;;;2.76;76.05;93664.53;4870821;29;20093;-79
2021/12/07 08:26:08;;;;;;;;;;;;;;;2.77;75.97;93660.22;4871107;29;20052;-77
2021/12/07 08:28:34;;;;;;;28.92;18.83;;;;;;;2.74;77.27;93666.53;4872406;29;20431;-79
2021/12/07 08:30:59;;;;;;;26.02;13.73;;;;;;;2.72;75.74;93663.41;4865088;29;20045;-79
2021/12/07 08:33:31;;;;;;;28.55;16.48;;;;;;;2.75;76.55;93668.09;4874184;29;20037;-79
2021/12/07 08:35:57;;;;;;;23.05;13.15;;;;;;;2.89;76.00;93663.63;4880555;29;20427;-78
2021/12/07 08:38:23;;;;;;;18.75;11.57;;;;;;;2.98;75.55;93672.66;4896258;29;20128;-78
2021/12/07 08:40:53;;;;;;;13.90;9.43;;;;;;;2.89;75.83;93671.34;4869140;29;20506;-78
2021/12/07 08:43:20;;;;;;;13.00;8.80;;;;;;;2.70;76.68;93673.09;4892541;29;20069;-78
2021/12/07 08:45:45;;;;;;;;;;;;;;;2.70;76.24;93675.66;4877370;29;20498;-78
2021/12/07 08:48:10;;;;;;;;;;;;;;;2.59;76.43;93682.25;4884938;29;19953;-78
2021/12/07 08:50:36;;;;;;;;;;;;;;;2.48;78.04;93687.31;4885427;29;19920;-78
2021/12/07 08:53:03;;;;;;;;;;;;;;;2.42;78.18;93688.91;4871606;29;20366;-78
2021/12/07 09:01:00;;;;;;;15.60;10.57;;;;;;;2.54;78.77;93686.44;4869468;29;20067;-78
2021/12/07 09:03:26;;;;;;;;;;;;;;;2.60;78.56;93691.56;4870239;29;20486;-78
2021/12/07 09:05:51;;;;;;;46.55;18.35;;;;;;;2.65;76.67;93698.63;4870631;29;19920;-78
2021/12/07 09:08:17;;;;;;;;;;;;;;;2.58;76.78;93697.88;4869432;29;20108;-78
2021/12/07 09:10:42;;;;;;;;;;;;;;;2.53;79.12;93695.94;4870657;29;19935;-78
2021/12/07 09:13:08;;;;;;;46.95;28.13;;;;;;;2.58;79.14;93696.09;4868482;29;19916;-78
2021/12/07 09:15:34;;;;;;;36.83;25.35;;;;;;;2.81;76.24;93690.38;4871080;29;20415;-78
2021/12/07 09:17:59;;;;;;;22.93;16.53;;;;;;;2.99;76.17;93695.53;4871098;29;20424;-79
2021/12/07 09:20:25;;;;;;;23.38;15.80;;;;;;;3.27;74.84;93691.72;4873341;29;20418;-79
2021/12/07 09:22:50;;;;;;;;;;;;;;;3.33;73.44;93687.50;4873526;29;20041;-80
2021/12/07 09:25:16;;;;;;;15.98;11.05;;;;;;;3.26;74.48;93690.16;4896185;29;19945;-78
2021/12/07 09:27:42;;;;;;;18.73;8.05;;;;;;;3.14;75.55;93679.00;4870886;29;20044;-78
2021/12/07 09:30:07;;;;;;;;;;;;;;;3.03;74.65;93682.28;4887509;29;20037;-78
2021/12/07 09:32:35;;;;;;;;;;;;;;;2.96;75.15;93670.28;4878685;29;19920;-78
2021/12/07 09:35:03;;;;;;;14.75;9.52;;;;;;;2.90;75.54;93681.38;4877934;29;20490;-78
2021/12/07 09:37:28;;;;;;;15.48;10.48;;;;;;;2.86;76.51;93675.13;4894670;29;20087;-78
2021/12/07 09:39:54;;;;;;;17.30;11.93;;;;;;;2.94;76.17;93677.44;4892102;29;20056;-78
2021/12/07 09:42:20;;;;;;;35.70;21.48;;;;;;;3.06;76.07;93679.28;4869447;29;20516;-78
2021/12/07 09:44:45;;;;;;;40.53;23.73;;;;;;;3.27;75.18;93681.44;4867675;29;20457;-78
2021/12/07 09:47:10;;;;;;;;;;;;;;;3.45;74.91;93672.94;4862383;29;20524;-78
2021/12/07 09:49:36;;;;;;;;;;;;;;;3.43;73.89;93675.72;4870448;29;19923;-78
2021/12/07 09:52:01;;;;;;;;;;;;;;;3.42;74.21;93674.16;4886244;29;19920;-78
2021/12/07 09:54:27;;;;;;;;;;;;;;;3.45;74.38;93676.28;4886572;29;19915;-78
2021/12/07 09:56:52;;;;;;;;;;;;;;;3.49;73.97;93667.13;4873199;29;19934;-78
2021/12/07 09:59:17;;;;;;;;;;;;;;;3.46;74.95;93672.72;4891604;29;19920;-78
2021/12/07 10:01:42;;;;;;;;;;;;;;;3.47;74.42;93670.94;4887660;29;19952;-78
2021/12/07 10:04:08;;;;;;;;;;;;;;;3.47;75.43;93670.94;4886515;29;19920;-78
2021/12/07 10:06:33;;;;;;;;;;;;;;;3.52;76.04;93674.41;4872382;29;19928;-79
2021/12/07 10:08:59;;;;;;;;;;;;;;;3.58;73.84;93671.00;4893053;29;19920;-78
2021/12/07 10:11:24;;;;;;;;;;;;;;;3.59;74.32;93670.00;4871786;29;19920;-78
2021/12/07 10:13:51;;;;;;;;;;;;;;;3.68;74.20;93674.81;4887078;29;20404;-78
2021/12/07 10:16:17;;;;;;;;;;;;;;;3.75;74.13;93672.97;4904716;29;19948;-80
2021/12/07 10:18:42;;;;;;;;;;;;;;;3.82;73.22;93676.22;4901427;29;19957;-79
2021/12/07 10:21:10;;;;;;;;;;;;;;;3.87;73.45;93666.84;4880975;29;19920;-80
2021/12/07 10:23:43;;;;;;;;;;;;;;;3.95;71.15;93667.56;4873528;29;19983;-79
2021/12/07 10:26:16;;;;;;;;;;;;;;;3.90;73.54;93660.47;4887992;29;19920;-79
2021/12/07 10:28:49;;;;;;;;;;;;;;;3.84;72.77;93658.78;4875373;29;19927;-79
2021/12/07 10:31:16;;;;;;;;;;;;;;;3.82;71.94;93647.94;4895493;29;20002;-79
2021/12/07 10:33:43;;;;;;;;;;;;;;;3.78;71.62;93646.81;4880256;29;19920;-79
2021/12/07 10:36:12;;;;;;;;;;;;;;;3.68;71.08;93641.41;4888016;29;19975;-79
2021/12/07 10:38:38;;;;;;;;;;;;;;;3.44;72.78;93648.25;4895373;29;19991;-79
2021/12/07 10:41:04;;;;;;;;;;;;;;;3.34;73.43;93647.94;4887611;29;19928;-79
2021/12/07 10:43:49;;;;;;;;;;;;;;;3.36;74.13;93648.53;4871909;29;20536;-79
2021/12/07 10:46:34;;;;;;;;;;;;;;;3.33;72.69;93644.59;4895694;29;19993;-79
2021/12/07 10:49:34;;;;;;;;;;;;;;;3.32;72.79;93645.59;4879494;29;19932;-79
2021/12/07 10:52:00;;;;;;;;;;;;;;;3.37;74.86;93650.88;4845003;29;19959;-78
2021/12/07 10:54:26;;;;;;;;;;;;;;;3.38;74.57;93652.44;4869687;29;19926;-79
2021/12/07 10:56:51;;;;;;;;;;;;;;;3.40;74.88;93647.88;4872917;29;20301;-79
2021/12/07 10:59:16;;;;;;;;;;;;;;;3.44;72.92;93645.66;4873526;29;19931;-79
2021/12/07 11:01:43;;;;;;;;;;;;;;;3.33;72.37;93644.59;4894076;29;19931;-78
2021/12/07 11:04:27;;;;;;;;;;;;;;;3.32;72.79;93640.47;4897441;29;20360;-79
2021/12/07 11:07:04;;;;;;;;;;;;;;;3.40;72.93;93640.16;4875564;29;19976;-79
2021/12/07 11:09:30;;;;;;;;;;;;;;;3.53;73.71;93627.16;4877065;29;20586;-79
2021/12/07 11:12:08;;;;;;;;;;;;;;;3.56;72.57;93624.13;4899255;29;19919;-79
2021/12/07 11:14:51;;;;;;;;;;;;;;;3.45;72.33;93621.53;4892786;29;19924;-79
2021/12/07 11:17:18;;;;;;;;;;;;;;;3.40;75.38;93619.59;4878553;29;19920;-79
2021/12/07 11:19:43;;;;;;;;;;;;;;;3.43;72.38;93621.75;4891849;29;20010;-79
2021/12/07 11:22:11;;;;;;;;;;;;;;;3.48;73.76;93616.75;4877998;29;20042;-79
2021/12/07 11:24:37;;;;;;;;;;;;;;;3.53;74.35;93624.56;4902323;29;19927;-79
2021/12/07 11:30:11;;;;;;;26.58;14.88;;;;;;;3.71;72.25;93620.41;4898962;29;19931;-79
2021/12/07 11:32:36;;;;;;;30.95;14.52;;;;;;;3.75;73.04;93631.84;4877557;29;20029;-79
2021/12/07 11:35:26;;;;;;;26.25;16.00;;;;;;;3.83;71.81;93626.38;4866170;29;20062;-79
2021/12/07 11:37:53;;;;;;;47.78;20.70;;;;;;;3.94;73.01;93628.19;4904157;29;20045;-79
2021/12/07 11:40:29;;;;;;;36.05;17.70;;;;;;;4.11;70.28;93618.06;4890928;29;20084;-79
2021/12/07 11:42:55;;;;;;;16.60;10.50;;;;;;;4.17;69.70;93625.66;4891001;29;20034;-79
2021/12/07 11:45:30;;;;;;;22.30;12.60;;;;;;;4.20;70.12;93625.22;4901144;29;20073;-79
2021/12/07 11:48:01;;;;;;;20.83;12.85;;;;;;;4.25;67.75;93611.72;4881664;29;20073;-79
2021/12/07 11:50:31;;;;;;;19.17;12.40;;;;;;;4.24;68.50;93624.81;4874016;29;20046;-79
2021/12/07 11:53:09;;;;;;;13.70;9.77;;;;;;;4.26;68.16;93627.94;4884238;29;20045;-79
2021/12/07 11:55:36;;;;;;;;;;;;;;;4.21;67.76;93642.22;4887641;29;20037;-78
2021/12/07 11:58:05;;;;;;;22.45;10.27;;;;;;;4.17;68.31;93637.75;4871210;29;19924;-78
2021/12/07 12:00:35;;;;;;;16.83;9.90;;;;;;;4.25;66.85;93616.06;4872535;29;20443;-78
2021/12/07 12:03:04;;;;;;;30.65;20.13;;;;;;;4.43;66.10;93597.97;4869989;29;20420;-78
2021/12/07 12:05:30;;;;;;;31.65;18.10;;;;;;;4.47;66.29;93609.38;4870816;29;20048;-80
2021/12/07 12:07:56;;;;;;;31.15;17.02;;;;;;;4.42;67.24;93612.63;4870590;29;20049;-79
2021/12/07 12:10:21;;;;;;;30.45;18.00;;;;;;;4.57;66.73;93614.75;4870806;29;20432;-80
2021/12/07 12:13:07;;;;;;;35.60;21.37;;;;;;;4.87;65.44;93613.84;4870568;29;20426;-78
2021/12/07 12:16:28;;;;;;;29.73;18.92;;;;;;;5.03;63.57;93608.00;4865164;29;20419;-80
2021/12/07 12:19:12;;;;;;;;;;;;;;;4.96;65.03;93610.69;4876165;29;20087;-79
2021/12/07 12:21:41;;;;;;;;;;;;;;;4.85;65.07;93611.47;4880509;29;19995;-78
2021/12/07 12:24:18;;;;;;;;;;;;;;;4.70;64.48;93606.78;4909277;29;20006;-78
2021/12/07 12:26:45;;;;;;;;;;;;;;;4.54;64.67;93610.03;4904816;29;19931;-79
2021/12/07 12:29:22;;;;;;;30.35;15.25;;;;;;;4.45;65.15;93609.59;4910744;29;19928;-78
2021/12/07 12:31:55;;;;;;;45.25;28.85;;;;;;;4.40;65.69;93598.41;4855403;29;20048;-77
2021/12/07 12:34:23;;;;;;;36.53;23.70;;;;;;;4.33;66.77;93597.72;4878295;29;20042;-77
2021/12/07 12:37:05;;;;;;;34.13;21.65;;;;;;;4.36;67.98;93602.41;4874643;29;20071;-78
2021/12/07 12:39:44;;;;;;;39.03;22.90;;;;;;;4.52;68.89;93599.97;4880896;29;20431;-81
2021/12/07 12:42:11;;;;;;;34.65;22.98;;;;;;;4.69;67.42;93600.06;4876460;29;20534;-83
2021/12/07 12:44:36;;;;;;;30.17;20.13;;;;;;;4.87;66.06;93608.69;4874965;29;21072;-80
2021/12/07 12:47:03;;;;;;;19.25;12.63;;;;;;;5.03;65.26;93608.78;4876169;29;20420;-84
2021/12/07 12:49:39;;;;;;;50.47;33.28;;;;;;;5.17;64.60;93614.47;4863251;29;20418;-84
2021/12/07 12:52:05;;;;;;;65.40;38.38;;;;;;;5.09;65.69;93617.41;4864165;29;20049;-84
2021/12/07 12:54:40;;;;;;;65.70;38.67;;;;;;;4.92;65.66;93624.25;4887249;29;20033;-84
2021/12/07 12:57:13;;;;;;;27.77;17.25;;;;;;;4.74;67.66;93615.66;4895310;29;20104;-84
2021/12/07 12:59:43;;;;;;;21.42;13.43;;;;;;;4.58;67.23;93616.31;4879975;29;20071;-84
2021/12/07 13:02:09;;;;;;;25.80;15.15;;;;;;;4.60;66.12;93624.59;4861660;29;20434;-84
2021/12/07 13:04:34;;;;;;;22.35;14.55;;;;;;;4.71;67.10;93630.75;4877105;29;20424;-84
2021/12/07 13:07:42;;;;;;;32.90;18.23;;;;;;;4.62;66.43;93627.75;4878164;29;20053;-84
2021/12/07 13:09:48;;;;;;;37.58;20.35;;;;;;;4.71;66.42;93630.75;4879366;29;20430;-83
2021/12/07 13:12:31;;;;;;;77.28;41.10;;;;;;;4.78;66.05;93626.28;4860986;29;20424;-84
2021/12/07 13:15:09;;;;;;;;;;;;;;;4.76;64.70;93628.31;4895921;29;20486;-84
2021/12/07 13:17:38;;;;;;;;;;;;;;;4.40;65.69;93637.03;4877621;29;19920;-84
2021/12/07 13:20:19;;;;;;;;;;;;;;;4.15;66.26;93637.19;4879078;29;19987;-84
2021/12/07 13:22:59;;;;;;;;;;;;;;;3.96;66.94;93636.47;4880421;29;19934;-84
2021/12/07 13:25:26;;;;;;;;;;;;;;;3.80;67.14;93649.94;4875943;29;19920;-83
2021/12/07 13:28:11;;;;;;;;;;;;;;;3.67;68.60;93645.75;4878473;29;20012;-84
2021/12/07 13:30:45;;;;;;;;;;;;;;;3.54;67.75;93646.72;4877793;29;20014;-82
2021/12/07 13:33:11;;;;;;;;;;;;;;;3.43;67.54;93644.88;4883191;29;19926;-84
2021/12/07 13:35:40;;;;;;;;;;;;;;;3.32;69.06;93643.03;4892418;29;19920;-83
2021/12/07 13:38:15;;;;;;;;;;;;;;;3.21;67.68;93649.66;4877823;29;19927;-82
2021/12/07 13:40:40;;;;;;;;;;;;;;;3.12;68.04;93647.63;4895613;29;19931;-82
2021/12/07 13:43:05;;;;;;;21.98;13.43;;;;;;;2.97;68.96;93646.19;4890247;29;19928;-81
2021/12/07 13:45:31;;;;;;;;;;;;;;;2.92;69.90;93652.94;4907628;29;20033;-82
2021/12/07 13:47:56;;;;;;;;;;;;;;;2.86;68.16;93649.44;4891660;29;19903;-80